Time;durP1;ratioP1;P1;durP2;ratioP2;P2;SDS_P1;SDS_P2;PMS_P1;PMS_P2;Temp;Humidity;BMP_temperature;BMP_pressure;BME280_temperature;BME280_humidity;BME280_pressure;Samples;Min_cycle;Max_cycle;Signal;HPM_P1;HPM_P2
2022/07/28 00:00:52;;;;;;;;;;;;;;;;;;5036778;28;19921;-87
2022/07/28 00:03:17;;;;;;;;;;;;;;;;;;5031465;28;19917;-87
2022/07/28 00:05:42;;;;;;;;;;;;;;;;;;5032630;28;19936;-87
2022/07/28 00:08:09;;;;;;;;;;;;;;;;;;5031704;28;20315;-87
2022/07/28 00:10:34;;;;;;;;;;;;;;;;;;5032070;28;20043;-87
2022/07/28 00:12:59;;;;;;;;;;;;;;;;;;5032355;28;19987;-87
2022/07/28 00:15:24;;;;;;;;;;;;;;;;;;5036889;28;20405;-87
2022/07/28 00:17:49;;;;;;;;;;;;;;;;;;5038948;28;19959;-87
2022/07/28 00:20:15;;;;;;;;;;;;;;;;;;5016241;28;19998;-87
2022/07/28 00:22:40;;;;;;;;;;;;;;;;;;5031443;28;20294;-87
2022/07/28 00:25:05;;;;;;;;;;;;;;;;;;5031646;28;20015;-87
2022/07/28 00:27:30;;;;;;;;;;;;;;;;;;5022432;28;19920;-87
2022/07/28 00:29:55;;;;;;;;;;;;;;;;;;5037450;28;19916;-87
2022/07/28 00:32:20;;;;;;;;;;;;;;;;;;5032059;28;20411;-86
2022/07/28 00:34:46;;;;;;;;;;;;;;;;;;5031604;28;19917;-87
2022/07/28 00:37:11;;;;;;;;;;;;;;;;;;5031285;28;19920;-87
2022/07/28 00:39:36;;;;;;;;;;;;;;;;;;5032739;28;19917;-86
2022/07/28 00:42:01;;;;;;;;;;;;;;;;;;5029951;28;19909;-87
2022/07/28 00:44:26;;;;;;;;;;;;;;;;;;5031346;28;20334;-87
2022/07/28 00:46:51;;;;;;;;;;;;;;;;;;5035994;28;19920;-87
2022/07/28 00:49:17;;;;;;;;;;;;;;;;;;5038964;28;19920;-86
2022/07/28 00:51:42;;;;;;;;;;;;;;;;;;5031475;28;20452;-87
2022/07/28 00:54:07;;;;;;;;;;;;;;;;;;5030879;28;20375;-87
2022/07/28 00:56:32;;;;;;;;;;;;;;;;;;5029889;28;19917;-87
2022/07/28 00:58:57;;;;;;;;;;;;;;;;;;5037228;28;19962;-86
2022/07/28 01:01:23;;;;;;;;;;;;;;;;;;5030788;28;19951;-87
2022/07/28 01:03:48;;;;;;;;;;;;;;;;;;5041506;28;19920;-87
2022/07/28 01:06:13;;;;;;;;;;;;;;;;;;5032037;28;20425;-87
2022/07/28 01:08:38;;;;;;;;;;;;;;;;;;5037474;28;19920;-87
2022/07/28 01:11:03;;;;;;;;;;;;;;;;;;5034189;28;19913;-87
2022/07/28 01:13:28;;;;;;;;;;;;;;;;;;5030871;28;19925;-87
2022/07/28 01:15:54;;;;;;;;;;;;;;;;;;5036953;28;19948;-87
2022/07/28 01:18:19;;;;;;;;;;;;;;;;;;5030095;28;19960;-87
2022/07/28 01:20:44;;;;;;;;;;;;;;;;;;5031201;28;20292;-87
2022/07/28 01:23:09;;;;;;;;;;;;;;;;;;5029708;28;19923;-87
2022/07/28 01:25:34;;;;;;;;;;;;;;;;;;5043370;28;19967;-87
2022/07/28 01:27:59;;;;;;;;;;;;;;;;;;5041832;28;20003;-86
2022/07/28 01:30:25;;;;;;;;;;;;;;;;;;5036956;28;19928;-86
2022/07/28 01:32:50;;;;;;;;;;;;;;;;;;5029257;28;19999;-87
2022/07/28 01:35:15;;;;;;;;;;;;;;;;;;5036025;28;20394;-86
2022/07/28 01:37:40;;;;;;;;;;;;;;;;;;5031049;28;19960;-87
2022/07/28 01:40:05;;;;;;;;;;;;;;;;;;5030918;28;20279;-86
2022/07/28 01:42:31;;;;;;;;;;;;;;;;;;5012443;28;19921;-86
2022/07/28 01:44:56;;;;;;;;;;;;;;;;;;5030317;28;19913;-86
2022/07/28 01:47:21;;;;;;;;;;;;;;;;;;5029623;28;19913;-86
2022/07/28 01:49:46;;;;;;;;;;;;;;;;;;5031362;28;19913;-86
2022/07/28 01:52:11;;;;;;;;;;;;;;;;;;5028918;28;19913;-87
2022/07/28 01:54:36;;;;;;;;;;;;;;;;;;5030220;28;19932;-87
2022/07/28 01:57:02;;;;;;;;;;;;;;;;;;5032102;28;20453;-86
2022/07/28 01:59:27;;;;;;;;;;;;;;;;;;5030653;28;19921;-86
2022/07/28 02:01:52;;;;;;;;;;;;;;;;;;5030264;28;19920;-86
2022/07/28 02:04:17;;;;;;;;;;;;;;;;;;5012338;28;19927;-86
2022/07/28 02:06:42;;;;;;;;;;;;;;;;;;5029984;28;19913;-86
2022/07/28 02:09:07;;;;;;;;;;;;;;;;;;5036656;28;20014;-86
2022/07/28 02:11:39;;;;;;;;;;;;;;;;;;5031474;28;19917;-86
2022/07/28 02:14:04;;;;;;;;;;;;;;;;;;5011387;28;20011;-87
2022/07/28 02:16:29;;;;;;;;;;;;;;;;;;5029737;28;20618;-86
2022/07/28 02:18:54;;;;;;;;;;;;;;;;;;5030544;28;19920;-86
2022/07/28 02:21:19;;;;;;;;;;;;;;;;;;5028270;28;19913;-86
2022/07/28 02:23:44;;;;;;;;;;;;;;;;;;5029087;28;19923;-87
2022/07/28 02:26:09;;;;;;;;;;;;;;;;;;5037156;28;19913;-87
2022/07/28 02:28:35;;;;;;;;;;;;;;;;;;5029932;28;19996;-86
2022/07/28 02:31:00;;;;;;;;;;;;;;;;;;5029978;28;20062;-86
2022/07/28 02:33:25;;;;;;;;;;;;;;;;;;5029235;28;19960;-86
2022/07/28 02:35:50;;;;;;;;;;;;;;;;;;5034158;28;19913;-87
2022/07/28 02:38:15;;;;;;;;;;;;;;;;;;5035498;28;20440;-87
2022/07/28 02:40:40;;;;;;;;;;;;;;;;;;5029886;28;20004;-86
2022/07/28 02:43:06;;;;;;;;;;;;;;;;;;5027316;28;19913;-86
2022/07/28 02:45:31;;;;;;;;;;;;;;;;;;5035500;28;19974;-86
2022/07/28 02:47:56;;;;;;;;;;;;;;;;;;5027432;28;19913;-86
2022/07/28 02:50:21;;;;;;;;;;;;;;;;;;5029838;28;19913;-86
2022/07/28 02:52:47;;;;;;;;;;;;;;;;;;5030676;28;19956;-86
2022/07/28 02:55:12;;;;;;;;;;;;;;;;;;5028688;28;19917;-86
2022/07/28 02:57:37;;;;;;;;;;;;;;;;;;5032527;28;19921;-86
2022/07/28 03:00:02;;;;;;;;;;;;;;;;;;5033484;28;20454;-86
2022/07/28 03:02:29;;;;;;;;;;;;;;;;;;5036371;28;19921;-86
2022/07/28 03:04:57;;;;;;;;;;;;;;;;;;5037114;28;20386;-87
2022/07/28 03:07:22;;;;;;;;;;;;;;;;;;5025938;28;19913;-86
2022/07/28 03:09:48;;;;;;;;;;;;;;;;;;5033296;28;20003;-87
2022/07/28 03:12:13;;;;;;;;;;;;;;;;;;5031347;28;19913;-86
2022/07/28 03:14:38;;;;;;;;;;;;;;;;;;5033783;28;19924;-86
2022/07/28 03:17:03;;;;;;;;;;;;;;;;;;5036752;28;20367;-86
2022/07/28 03:19:28;;;;;;;;;;;;;;;;;;5035129;28;19948;-86
2022/07/28 03:21:54;;;;;;;;;;;;;;;;;;5034267;28;20007;-86
2022/07/28 03:24:19;;;;;;;;;;;;;;;;;;5031858;28;19920;-86
2022/07/28 03:26:45;;;;;;;;;;;;;;;;;;5033333;28;19948;-86
2022/07/28 03:29:10;;;;;;;;;;;;;;;;;;5033687;28;19952;-87
2022/07/28 03:31:35;;;;;;;;;;;;;;;;;;5040424;28;19975;-86
2022/07/28 03:34:01;;;;;;;;;;;;;;;;;;5039255;28;19922;-86
2022/07/28 03:36:26;;;;;;;;;;;;;;;;;;5033348;28;19917;-86
2022/07/28 03:38:51;;;;;;;;;;;;;;;;;;5032279;28;19913;-87
2022/07/28 03:41:16;;;;;;;;;;;;;;;;;;5033290;28;19959;-86
2022/07/28 03:43:41;;;;;;;;;;;;;;;;;;5032406;28;20008;-86
2022/07/28 03:46:06;;;;;;;;;;;;;;;;;;5013932;28;19921;-84
2022/07/28 03:48:33;;;;;;;;;;;;;;;;;;5045441;28;20438;-86
2022/07/28 03:50:58;;;;;;;;;;;;;;;;;;5032534;28;20290;-86
2022/07/28 03:53:23;;;;;;;;;;;;;;;;;;5036545;28;19924;-86
2022/07/28 03:55:52;;;;;;;;;;;;;;;;;;5032720;28;19924;-86
2022/07/28 03:58:17;;;;;;;;;;;;;;;;;;5032127;28;20004;-86
2022/07/28 04:00:42;;;;;;;;;;;;;;;;;;5038151;28;19968;-86
2022/07/28 04:03:08;;;;;;;;;;;;;;;;;;5032268;28;20004;-86
2022/07/28 04:05:33;;;;;;;;;;;;;;;;;;5039574;28;20432;-86
2022/07/28 04:07:58;;;;;;;;;;;;;;;;;;5030075;28;19921;-86
2022/07/28 04:10:23;;;;;;;;;;;;;;;;;;5031237;28;19947;-87
2022/07/28 04:12:48;;;;;;;;;;;;;;;;;;5031735;28;19913;-86
2022/07/28 04:15:13;;;;;;;;;;;;;;;;;;5037216;28;19920;-86
2022/07/28 04:17:39;;;;;;;;;;;;;;;;;;5032877;28;19952;-86
2022/07/28 04:20:04;;;;;;;;;;;;;;;;;;5031162;28;20439;-86
2022/07/28 04:22:29;;;;;;;;;;;;;;;;;;5031411;28;20064;-86
2022/07/28 04:24:54;;;;;;;;;;;;;;;;;;5032097;28;19975;-86
2022/07/28 04:27:19;;;;;;;;;;;;;;;;;;5031116;28;19909;-86
2022/07/28 04:29:45;;;;;;;;;;;;;;;;;;5034424;28;20012;-86
2022/07/28 04:32:10;;;;;;;;;;;;;;;;;;5031507;28;19955;-86
2022/07/28 04:34:35;;;;;;;;;;;;;;;;;;5019663;28;19917;-86
2022/07/28 04:37:00;;;;;;;;;;;;;;;;;;5031452;28;20363;-86
2022/07/28 04:39:25;;;;;;;;;;;;;;;;;;5031141;28;19940;-86
2022/07/28 04:41:51;;;;;;;;;;;;;;;;;;5035859;28;20278;-86
2022/07/28 04:44:16;;;;;;;;;;;;;;;;;;5031284;28;19951;-86
2022/07/28 04:46:41;;;;;;;;;;;;;;;;;;5037066;28;19970;-86
2022/07/28 04:49:06;;;;;;;;;;;;;;;;;;5038519;28;19909;-86
2022/07/28 04:51:31;;;;;;;;;;;;;;;;;;5037198;28;19947;-86
2022/07/28 04:53:57;;;;;;;;;;;;;;;;;;5035235;28;20259;-85
2022/07/28 04:56:22;;;;;;;;;;;;;;;;;;5038285;28;19909;-86
2022/07/28 04:58:47;;;;;;;;;;;;;;;;;;5031981;28;19924;-86
2022/07/28 05:01:12;;;;;;;;;;;;;;;;;;5036863;28;19933;-86
2022/07/28 05:03:37;;;;;;;;;;;;;;;;;;5030517;28;19925;-87
2022/07/28 05:06:03;;;;;;;;;;;;;;;;;;5030876;28;19975;-86
2022/07/28 05:08:28;;;;;;;;;;;;;;;;;;5031711;28;20394;-87
2022/07/28 05:10:54;;;;;;;;;;;;;;;;;;5036422;28;19913;-86
2022/07/28 05:13:19;;;;;;;;;;;;;;;;;;5032716;28;19913;-87
2022/07/28 05:15:45;;;;;;;;;;;;;;;;;;5042638;28;20286;-86
2022/07/28 05:18:10;;;;;;;;;;;;;;;;;;5033673;28;19951;-87
2022/07/28 05:20:35;;;;;;;;;;;;;;;;;;5030639;28;19944;-86
2022/07/28 05:23:02;;;;;;;;;;;;;;;;;;5030983;28;19924;-87
2022/07/28 05:25:28;;;;;;;;;;;;;;;;;;5030148;28;20368;-87
2022/07/28 05:27:54;;;;;;;;;;;;;;;;;;5031115;28;20234;-86
2022/07/28 05:30:19;;;;;;;;;;;;;;;;;;5030084;28;19968;-87
2022/07/28 05:32:45;;;;;;;;;;;;;;;;;;5035216;28;19912;-87
2022/07/28 05:35:10;;;;;;;;;;;;;;;;;;5033016;28;20401;-87
2022/07/28 05:37:35;;;;;;;;;;;;;;;;;;5029204;28;20287;-87
2022/07/28 05:40:00;;;;;;;;;;;;;;;;;;5030833;28;19917;-87
2022/07/28 05:42:27;;;;;;;;;;;;;;;;;;5034108;28;20363;-86
2022/07/28 05:44:52;;;;;;;;;;;;;;;;;;5038659;28;19913;-86
2022/07/28 05:47:17;;;;;;;;;;;;;;;;;;5031660;28;19924;-87
2022/07/28 05:49:42;;;;;;;;;;;;;;;;;;5030617;28;19914;-87
2022/07/28 05:52:07;;;;;;;;;;;;;;;;;;5029675;28;20026;-87
2022/07/28 05:54:33;;;;;;;;;;;;;;;;;;5030469;28;19928;-87
2022/07/28 05:56:58;;;;;;;;;;;;;;;;;;5030712;28;20442;-87
2022/07/28 05:59:23;;;;;;;;;;;;;;;;;;5036783;28;19913;-87
2022/07/28 06:01:48;;;;;;;;;;;;;;;;;;5032203;28;19913;-87
2022/07/28 06:04:13;;;;;;;;;;;;;;;;;;5013673;28;20274;-87
2022/07/28 06:06:39;;;;;;;;;;;;;;;;;;5030247;28;19920;-87
2022/07/28 06:09:04;;;;;;;;;;;;;;;;;;5042644;28;20382;-87
2022/07/28 06:11:29;;;;;;;;;;;;;;;;;;5030297;28;19927;-87
2022/07/28 06:13:54;;;;;;;;;;;;;;;;;;5030514;28;19971;-87
2022/07/28 06:16:19;;;;;;;;;;;;;;;;;;5029152;28;19913;-88
2022/07/28 06:18:45;;;;;;;;;;;;;;;;;;5040430;28;19917;-88
2022/07/28 06:21:10;;;;;;;;;;;;;;;;;;5031202;28;19921;-87
2022/07/28 06:23:35;;;;;;;;;;;;;;;;;;5030063;28;20037;-87
2022/07/28 06:26:00;;;;;;;;;;;;;;;;;;5029785;28;19952;-88
2022/07/28 06:28:25;;;;;;;;;;;;;;;;;;5030608;28;19928;-88
2022/07/28 06:30:51;;;;;;;;;;;;;;;;;;5036326;28;20426;-88
2022/07/28 06:33:16;;;;;;;;;;;;;;;;;;5031473;28;19920;-88
2022/07/28 06:35:41;;;;;;;;;;;;;;;;;;5019254;28;19913;-88
2022/07/28 06:38:06;;;;;;;;;;;;;;;;;;5030503;28;20325;-88
2022/07/28 06:40:31;;;;;;;;;;;;;;;;;;5030792;28;19943;-88
2022/07/28 06:42:56;;;;;;;;;;;;;;;;;;5029293;28;19920;-88
2022/07/28 06:45:22;;;;;;;;;;;;;;;;;;5028112;28;19920;-88
2022/07/28 06:47:47;;;;;;;;;;;;;;;;;;5034507;28;19939;-88
2022/07/28 06:50:12;;;;;;;;;;;;;;;;;;5029523;28;19913;-88
2022/07/28 06:52:37;;;;;;;;;;;;;;;;;;5021827;28;19917;-88
2022/07/28 06:55:02;;;;;;;;;;;;;;;;;;5033493;28;20016;-88
2022/07/28 06:57:28;;;;;;;;;;;;;;;;;;5028435;28;20169;-88
2022/07/28 06:59:53;;;;;;;;;;;;;;;;;;5029809;28;20522;-88
2022/07/28 07:02:18;;;;;;;;;;;;;;;;;;5027110;28;19960;-88
2022/07/28 07:04:43;;;;;;;;;;;;;;;;;;5011996;28;19956;-89
2022/07/28 07:07:08;;;;;;;;;;;;;;;;;;5029388;28;19921;-89
2022/07/28 07:09:34;;;;;;;;;;;;;;;;;;5029406;28;19928;-88
2022/07/28 07:11:59;;;;;;;;;;;;;;;;;;5029871;28;20383;-89
2022/07/28 07:14:24;;;;;;;;;;;;;;;;;;5028273;28;19984;-89
2022/07/28 07:16:49;;;;;;;;;;;;;;;;;;5030019;28;19913;-88
2022/07/28 07:19:15;;;;;;;;;;;;;;;;;;5027686;28;19913;-89
2022/07/28 07:21:40;;;;;;;;;;;;;;;;;;5030032;28;20189;-88
2022/07/28 07:24:05;;;;;;;;;;;;;;;;;;5038716;28;19920;-88
2022/07/28 07:26:30;;;;;;;;;;;;;;;;;;5028484;28;19917;-88
2022/07/28 07:28:55;;;;;;;;;;;;;;;;;;5029739;28;19917;-88
2022/07/28 07:31:20;;;;;;;;;;;;;;;;;;5029065;28;19988;-89
2022/07/28 07:33:46;;;;;;;;;;;;;;;;;;5029000;28;19925;-88
2022/07/28 07:36:11;;;;;;;;;;;;;;;;;;5015845;28;19920;-88
2022/07/28 07:38:38;;;;;;;;;;;;;;;;;;5031551;28;20060;-88
2022/07/28 07:41:03;;;;;;;;;;;;;;;;;;5032758;28;19913;-88
2022/07/28 07:43:28;;;;;;;;;;;;;;;;;;5010917;28;19923;-88
2022/07/28 07:45:53;;;;;;;;;;;;;;;;;;5031849;28;20286;-88
2022/07/28 07:48:18;;;;;;;;;;;;;;;;;;5031247;28;19917;-89
2022/07/28 07:50:44;;;;;;;;;;;;;;;;;;5033090;28;19913;-89
2022/07/28 07:53:09;;;;;;;;;;;;;;;;;;5038857;28;19913;-89
2022/07/28 07:55:34;;;;;;;;;;;;;;;;;;5032725;28;20008;-88
2022/07/28 07:57:59;;;;;;;;;;;;;;;;;;5035429;28;20213;-87
2022/07/28 08:00:24;;;;;;;;;;;;;;;;;;5032953;28;19917;-88
2022/07/28 08:02:50;;;;;;;;;;;;;;;;;;5031827;28;19913;-89
2022/07/28 08:05:16;;;;;;;;;;;;;;;;;;5031091;28;20006;-88
2022/07/28 08:07:41;;;;;;;;;;;;;;;;;;5038625;28;20398;-88
2022/07/28 08:10:07;;;;;;;;;;;;;;;;;;5032132;28;20004;-88
2022/07/28 08:12:32;;;;;;;;;;;;;;;;;;5016515;28;20417;-88
2022/07/28 08:14:57;;;;;;;;;;;;;;;;;;5032081;28;19983;-88
2022/07/28 08:17:22;;;;;;;;;;;;;;;;;;5031527;28;20374;-88
2022/07/28 08:19:47;;;;;;;;;;;;;;;;;;5032789;28;20000;-88
2022/07/28 08:22:13;;;;;;;;;;;;;;;;;;5030438;28;20290;-89
2022/07/28 08:24:38;;;;;;;;;;;;;;;;;;5031801;28;20029;-89
2022/07/28 08:27:03;;;;;;;;;;;;;;;;;;5035272;28;19928;-88
2022/07/28 08:29:28;;;;;;;;;;;;;;;;;;5032529;28;19925;-89
2022/07/28 08:31:54;;;;;;;;;;;;;;;;;;5031322;28;19913;-88
2022/07/28 08:34:19;;;;;;;;;;;;;;;;;;5031747;28;19923;-89
2022/07/28 08:36:44;;;;;;;;;;;;;;;;;;5033645;28;19913;-89
2022/07/28 08:39:09;;;;;;;;;;;;;;;;;;5037853;28;20252;-89
2022/07/28 08:41:34;;;;;;;;;;;;;;;;;;5030769;28;19928;-88
2022/07/28 08:43:59;;;;;;;;;;;;;;;;;;5031927;28;19913;-89
2022/07/28 08:46:25;;;;;;;;;;;;;;;;;;5031400;28;19955;-89
2022/07/28 08:48:50;;;;;;;;;;;;;;;;;;5032238;28;19917;-88
2022/07/28 08:51:15;;;;;;;;;;;;;;;;;;5030881;28;20403;-88
2022/07/28 08:53:40;;;;;;;;;;;;;;;;;;5017529;28;19972;-88
2022/07/28 08:56:06;;;;;;;;;;;;;;;;;;5038838;28;19912;-88
2022/07/28 08:58:31;;;;;;;;;;;;;;;;;;5033334;28;21428;-88
2022/07/28 09:00:56;;;;;;;;;;;;;;;;;;5034250;28;19947;-88
2022/07/28 09:03:21;;;;;;;;;;;;;;;;;;5029639;28;20445;-89
2022/07/28 09:05:49;;;;;;;;;;;;;;;;;;5029420;28;19913;-88
2022/07/28 09:08:14;;;;;;;;;;;;;;;;;;5030377;28;20013;-89
2022/07/28 09:10:39;;;;;;;;;;;;;;;;;;5030924;28;20004;-88
2022/07/28 09:13:04;;;;;;;;;;;;;;;;;;5030204;28;19971;-88
2022/07/28 09:15:31;;;;;;;;;;;;;;;;;;5031545;28;20536;-88
2022/07/28 09:17:56;;;;;;;;;;;;;;;;;;5030685;28;19913;-88
2022/07/28 09:20:21;;;;;;;;;;;;;;;;;;5030231;28;19913;-88
2022/07/28 09:22:47;;;;;;;;;;;;;;;;;;5030395;28;19913;-88
2022/07/28 09:25:12;;;;;;;;;;;;;;;;;;5036268;28;19936;-88
2022/07/28 09:27:37;;;;;;;;;;;;;;;;;;5030354;28;20008;-88
2022/07/28 09:30:02;;;;;;;;;;;;;;;;;;5029185;28;19910;-88
2022/07/28 09:32:27;;;;;;;;;;;;;;;;;;5012705;28;20506;-88
2022/07/28 09:34:53;;;;;;;;;;;;;;;;;;5012101;28;19924;-88
2022/07/28 09:37:18;;;;;;;;;;;;;;;;;;5030652;28;20157;-88
2022/07/28 09:39:43;;;;;;;;;;;;;;;;;;5029489;28;19913;-88
2022/07/28 09:42:08;;;;;;;;;;;;;;;;;;5029923;28;19909;-88
2022/07/28 09:44:33;;;;;;;;;;;;;;;;;;5035137;28;19917;-88
2022/07/28 09:46:59;;;;;;;;;;;;;;;;;;5029463;28;19920;-88
2022/07/28 09:49:24;;;;;;;;;;;;;;;;;;5028790;28;20001;-89
2022/07/28 09:51:49;;;;;;;;;;;;;;;;;;5036670;28;20034;-88
2022/07/28 09:54:14;;;;;;;;;;;;;;;;;;5028575;28;19921;-87
2022/07/28 09:56:40;;;;;;;;;;;;;;;;;;5030331;28;19913;-87
2022/07/28 09:59:06;;;;;;;;;;;;;;;;;;5030409;28;19956;-87
2022/07/28 10:01:32;;;;;;;;;;;;;;;;;;5031369;28;19917;-88
2022/07/28 10:03:57;;;;;;;;;;;;;;;;;;5030131;28;20278;-88
2022/07/28 10:06:23;;;;;;;;;;;;;;;;;;5029626;28;20283;-88
2022/07/28 10:08:48;;;;;;;;;;;;;;;;;;5028685;28;19925;-87
2022/07/28 10:11:13;;;;;;;;;;;;;;;;;;5028317;28;19921;-89
2022/07/28 10:13:39;;;;;;;;;;;;;;;;;;5028863;28;19921;-89
2022/07/28 10:16:10;;;;;;;;;;;;;;;;;;5035843;28;19914;-89
2022/07/28 10:18:35;;;;;;;;;;;;;;;;;;5029353;28;20349;-89
2022/07/28 10:21:00;;;;;;;;;;;;;;;;;;5030052;28;19916;-88
2022/07/28 10:23:26;;;;;;;;;;;;;;;;;;5028641;28;21415;-88
2022/07/28 10:25:51;;;;;;;;;;;;;;;;;;5029321;28;20529;-89
2022/07/28 10:28:16;;;;;;;;;;;;;;;;;;5035649;28;19959;-89
2022/07/28 10:30:41;;;;;;;;;;;;;;;;;;5029751;28;19936;-89
2022/07/28 10:33:06;;;;;;;;;;;;;;;;;;5028567;28;19920;-88
2022/07/28 10:35:31;;;;;;;;;;;;;;;;;;5029096;28;19971;-88
2022/07/28 10:37:57;;;;;;;;;;;;;;;;;;5029703;28;19956;-88
2022/07/28 10:40:22;;;;;;;;;;;;;;;;;;5029368;28;19913;-89
2022/07/28 10:42:47;;;;;;;;;;;;;;;;;;5033181;28;19917;-89
2022/07/28 10:45:12;;;;;;;;;;;;;;;;;;5031222;28;19952;-89
2022/07/28 10:47:37;;;;;;;;;;;;;;;;;;5028329;28;20298;-87
2022/07/28 10:50:03;;;;;;;;;;;;;;;;;;5030051;28;19913;-89
2022/07/28 10:52:28;;;;;;;;;;;;;;;;;;5028663;28;19932;-89
2022/07/28 10:54:53;;;;;;;;;;;;;;;;;;5034986;28;19924;-89
2022/07/28 10:57:18;;;;;;;;;;;;;;;;;;5035660;28;19920;-89
2022/07/28 10:59:43;;;;;;;;;;;;;;;;;;5029614;28;20429;-89
2022/07/28 11:02:08;;;;;;;;;;;;;;;;;;5009563;28;19920;-89
2022/07/28 11:04:34;;;;;;;;;;;;;;;;;;5029639;28;20388;-90
2022/07/28 11:06:59;;;;;;;;;;;;;;;;;;5030374;28;19913;-89
2022/07/28 11:09:24;;;;;;;;;;;;;;;;;;5035848;28;19975;-90
2022/07/28 11:11:49;;;;;;;;;;;;;;;;;;5029207;28;19913;-90
2022/07/28 11:14:14;;;;;;;;;;;;;;;;;;5031604;28;19963;-90
2022/07/28 11:16:39;;;;;;;;;;;;;;;;;;5030675;28;19913;-90
2022/07/28 11:19:08;;;;;;;;;;;;;;;;;;5029588;28;19920;-90
2022/07/28 11:21:33;;;;;;;;;;;;;;;;;;5033162;28;20043;-89
2022/07/28 11:23:58;;;;;;;;;;;;;;;;;;5019119;28;20026;-89
2022/07/28 11:26:23;;;;;;;;;;;;;;;;;;5023647;28;19913;-90
2022/07/28 11:28:48;;;;;;;;;;;;;;;;;;5032825;28;19921;-90
2022/07/28 11:31:14;;;;;;;;;;;;;;;;;;5015286;28;20382;-90
2022/07/28 11:33:39;;;;;;;;;;;;;;;;;;5031068;28;19920;-90
2022/07/28 11:36:04;;;;;;;;;;;;;;;;;;5033628;28;19914;-90
2022/07/28 11:38:29;;;;;;;;;;;;;;;;;;5032399;28;22047;-90
2022/07/28 11:40:55;;;;;;;;;;;;;;;;;;5032958;28;19991;-90
2022/07/28 11:43:24;;;;;;;;;;;;;;;;;;5038249;28;19968;-89
2022/07/28 11:45:50;;;;;;;;;;;;;;;;;;5038600;28;19970;-89
2022/07/28 11:48:15;;;;;;;;;;;;;;;;;;5034812;28;19913;-91
2022/07/28 11:50:40;;;;;;;;;;;;;;;;;;5032904;28;19913;-90
2022/07/28 11:53:05;;;;;;;;;;;;;;;;;;5032813;28;19913;-90
2022/07/28 11:55:32;;;;;;;;;;;;;;;;;;5031578;28;19924;-90
2022/07/28 11:57:59;;;;;;;;;;;;;;;;;;5032870;28;19944;-89
2022/07/28 12:00:25;;;;;;;;;;;;;;;;;;5031952;28;20282;-90
2022/07/28 12:02:50;;;;;;;;;;;;;;;;;;5032939;28;19921;-90
2022/07/28 12:05:16;;;;;;;;;;;;;;;;;;5046468;23;19925;-87
2022/07/28 12:07:41;;;;;;;;;;;;;;;;;;5027320;28;19917;-84
2022/07/28 12:10:07;;;;;;;;;;;;;;;;;;5028506;28;19917;-85
2022/07/28 12:12:32;;;;;;;;;;;;;;;;;;5028855;28;19931;-85
2022/07/28 12:14:57;;;;;;;;;;;;;;;;;;5029867;28;19921;-85
2022/07/28 12:17:22;;;;;;;;;;;;;;;;;;5029920;28;19917;-87
2022/07/28 12:19:47;;;;;;;;;;;;;;;;;;5030697;28;19921;-87
2022/07/28 12:22:13;;;;;;;;;;;;;;;;;;5026910;28;20289;-86
2022/07/28 12:24:38;;;;;;;;;;;;;;;;;;5030657;28;19914;-86
2022/07/28 12:27:03;;;;;;;;;;;;;;;;;;5028622;28;19917;-86
2022/07/28 12:29:32;;;;;;;;;;;;;;;;;;5029763;28;20485;-87
2022/07/28 12:31:57;;;;;;;;;;;;;;;;;;5027898;28;19914;-87
2022/07/28 12:34:23;;;;;;;;;;;;;;;;;;5029466;28;19924;-87
2022/07/28 12:36:48;;;;;;;;;;;;;;;;;;5028457;28;19936;-86
2022/07/28 12:39:13;;;;;;;;;;;;;;;;;;5026736;28;19913;-86
2022/07/28 12:41:38;;;;;;;;;;;;;;;;;;5026706;28;19978;-87
2022/07/28 12:44:03;;;;;;;;;;;;;;;;;;5024466;28;19914;-87
2022/07/28 12:46:28;;;;;;;;;;;;;;;;;;5030210;28;19920;-86
2022/07/28 12:48:57;;;;;;;;;;;;;;;;;;5025448;28;19913;-86
2022/07/28 12:51:22;;;;;;;;;;;;;;;;;;5024682;28;19920;-87
2022/07/28 12:53:47;;;;;;;;;;;;;;;;;;5025477;28;20290;-87
2022/07/28 12:56:12;;;;;;;;;;;;;;;;;;5020216;28;19920;-86
2022/07/28 12:58:38;;;;;;;;;;;;;;;;;;5024161;28;19920;-87
2022/07/28 13:01:07;;;;;;;;;;;;;;;;;;5023857;28;20458;-87
2022/07/28 13:03:32;;;;;;;;;;;;;;;;;;5028019;28;19917;-87
2022/07/28 13:06:01;;;;;;;;;;;;;;;;;;5025972;28;19984;-86
2022/07/28 13:08:26;;;;;;;;;;;;;;;;;;5026925;28;19920;-87
2022/07/28 13:10:51;;;;;;;;;;;;;;;;;;5026836;28;19913;-87
2022/07/28 13:13:16;;;;;;;;;;;;;;;;;;5027310;28;19967;-86
2022/07/28 13:15:42;;;;;;;;;;;;;;;;;;5027426;28;19924;-87
2022/07/28 13:18:07;;;;;;;;;;;;;;;;;;5025874;28;19913;-87
2022/07/28 13:20:35;;;;;;;;;;;;;;;;;;5025396;28;20402;-87
2022/07/28 13:23:00;;;;;;;;;;;;;;;;;;5028782;28;19920;-86
2022/07/28 13:25:25;;;;;;;;;;;;;;;;;;5020205;28;19921;-87
2022/07/28 13:27:50;;;;;;;;;;;;;;;;;;5026867;28;20390;-87
2022/07/28 13:30:16;;;;;;;;;;;;;;;;;;5026692;28;19924;-87
2022/07/28 13:32:41;;;;;;;;;;;;;;;;;;5029947;28;19913;-87
2022/07/28 13:35:06;;;;;;;;;;;;;;;;;;5027957;28;20055;-87
2022/07/28 13:37:31;;;;;;;;;;;;;;;;;;5028528;28;19913;-86
2022/07/28 13:39:56;;;;;;;;;;;;;;;;;;5026957;28;19914;-86
2022/07/28 13:42:22;;;;;;;;;;;;;;;;;;5027549;28;20121;-87
2022/07/28 13:44:48;;;;;;;;;;;;;;;;;;5007395;28;20349;-86
2022/07/28 13:47:13;;;;;;;;;;;;;;;;;;5025387;28;19913;-85
2022/07/28 13:49:38;;;;;;;;;;;;;;;;;;5027926;28;20287;-86
2022/07/28 13:52:03;;;;;;;;;;;;;;;;;;5028148;28;19952;-85
2022/07/28 13:54:29;;;;;;;;;;;;;;;;;;5027354;28;20007;-86
2022/07/28 13:56:54;;;;;;;;;;;;;;;;;;5027829;28;19920;-86
2022/07/28 13:59:19;;;;;;;;;;;;;;;;;;5025420;28;19922;-85
2022/07/28 14:01:44;;;;;;;;;;;;;;;;;;5025285;28;20031;-85
2022/07/28 14:04:09;;;;;;;;;;;;;;;;;;5027639;28;19935;-86
2022/07/28 14:06:34;;;;;;;;;;;;;;;;;;5026672;28;19921;-85
2022/07/28 14:09:00;;;;;;;;;;;;;;;;;;5009647;28;19920;-86
2022/07/28 14:11:25;;;;;;;;;;;;;;;;;;5025312;28;20016;-85
2022/07/28 14:13:53;;;;;;;;;;;;;;;;;;5027409;28;19920;-85
2022/07/28 14:16:18;;;;;;;;;;;;;;;;;;5025631;28;20274;-85
2022/07/28 14:18:43;;;;;;;;;;;;;;;;;;5025015;28;19913;-85
2022/07/28 14:21:09;;;;;;;;;;;;;;;;;;5027754;28;19924;-85
2022/07/28 14:23:34;;;;;;;;;;;;;;;;;;5024917;28;19928;-85
2022/07/28 14:25:59;;;;;;;;;;;;;;;;;;5027796;28;19913;-85
2022/07/28 14:28:24;;;;;;;;;;;;;;;;;;5024957;28;20341;-85
2022/07/28 14:30:49;;;;;;;;;;;;;;;;;;5024811;28;19959;-85
2022/07/28 14:33:15;;;;;;;;;;;;;;;;;;5024467;28;19913;-85
2022/07/28 14:35:40;;;;;;;;;;;;;;;;;;5027776;28;19967;-85
2022/07/28 14:38:08;;;;;;;;;;;;;;;;;;5025237;28;19933;-85
2022/07/28 14:40:34;;;;;;;;;;;;;;;;;;5026066;28;19928;-85
2022/07/28 14:42:59;;;;;;;;;;;;;;;;;;5025167;28;19913;-85
2022/07/28 14:45:24;;;;;;;;;;;;;;;;;;5024825;28;20326;-84
2022/07/28 14:47:49;;;;;;;;;;;;;;;;;;5024782;28;20157;-85
2022/07/28 14:50:14;;;;;;;;;;;;;;;;;;5024724;28;19913;-86
2022/07/28 14:52:39;;;;;;;;;;;;;;;;;;5026788;28;19967;-86
2022/07/28 14:55:04;;;;;;;;;;;;;;;;;;5024562;28;19921;-86
2022/07/28 14:57:30;;;;;;;;;;;;;;;;;;5023193;28;20043;-85
2022/07/28 14:59:55;;;;;;;;;;;;;;;;;;5022950;28;19913;-85
2022/07/28 15:02:20;;;;;;;;;;;;;;;;;;5023687;28;19917;-85
2022/07/28 15:04:45;;;;;;;;;;;;;;;;;;5026087;28;20385;-85
2022/07/28 15:07:10;;;;;;;;;;;;;;;;;;5026405;28;19917;-85
2022/07/28 15:09:36;;;;;;;;;;;;;;;;;;5025981;28;19917;-85
2022/07/28 15:12:01;;;;;;;;;;;;;;;;;;5005941;28;20438;-85
2022/07/28 15:14:26;;;;;;;;;;;;;;;;;;5006861;28;19971;-85
2022/07/28 15:16:51;;;;;;;;;;;;;;;;;;5023723;28;19963;-85
2022/07/28 15:19:18;;;;;;;;;;;;;;;;;;5023537;28;20078;-85
2022/07/28 15:21:44;;;;;;;;;;;;;;;;;;5026383;28;19944;-85
2022/07/28 15:24:09;;;;;;;;;;;;;;;;;;5025910;28;19917;-84
2022/07/28 15:26:35;;;;;;;;;;;;;;;;;;5025853;28;19928;-85
2022/07/28 15:29:00;;;;;;;;;;;;;;;;;;5026995;28;19925;-85
2022/07/28 15:31:25;;;;;;;;;;;;;;;;;;5023892;28;20011;-85
2022/07/28 15:33:50;;;;;;;;;;;;;;;;;;5025804;28;19927;-85
2022/07/28 15:36:15;;;;;;;;;;;;;;;;;;5026757;28;19936;-85
2022/07/28 15:38:41;;;;;;;;;;;;;;;;;;5025910;28;19940;-85
2022/07/28 15:41:06;;;;;;;;;;;;;;;;;;5025323;28;20345;-85
2022/07/28 15:43:31;;;;;;;;;;;;;;;;;;5025386;28;20378;-85
2022/07/28 15:45:57;;;;;;;;;;;;;;;;;;5026012;28;19913;-86
2022/07/28 15:48:22;;;;;;;;;;;;;;;;;;5024484;28;19913;-85
2022/07/28 15:50:47;;;;;;;;;;;;;;;;;;5025459;28;20370;-85
2022/07/28 15:53:12;;;;;;;;;;;;;;;;;;5022183;28;19913;-85
2022/07/28 15:55:37;;;;;;;;;;;;;;;;;;5026618;28;19928;-85
2022/07/28 15:58:03;;;;;;;;;;;;;;;;;;5025588;28;19928;-84
2022/07/28 16:00:28;;;;;;;;;;;;;;;;;;5024820;28;20109;-85
2022/07/28 16:02:53;;;;;;;;;;;;;;;;;;5026715;28;19967;-85
2022/07/28 16:05:18;;;;;;;;;;;;;;;;;;5024554;28;20416;-85
2022/07/28 16:07:43;;;;;;;;;;;;;;;;;;5025685;28;19913;-85
2022/07/28 16:10:09;;;;;;;;;;;;;;;;;;5030599;28;20413;-86
2022/07/28 16:12:34;;;;;;;;;;;;;;;;;;5028429;28;20089;-86
2022/07/28 16:14:59;;;;;;;;;;;;;;;;;;5030277;28;19917;-85
2022/07/28 16:17:24;;;;;;;;;;;;;;;;;;5027609;28;20255;-85
2022/07/28 16:19:52;;;;;;;;;;;;;;;;;;5029501;28;19920;-85
2022/07/28 16:22:18;;;;;;;;;;;;;;;;;;5028169;28;20386;-85
2022/07/28 16:24:43;;;;;;;;;;;;;;;;;;5029003;28;19967;-84
2022/07/28 16:27:08;;;;;;;;;;;;;;;;;;5028235;28;20000;-85
2022/07/28 16:29:33;;;;;;;;;;;;;;;;;;5028809;28;20590;-85
2022/07/28 16:31:58;;;;;;;;;;;;;;;;;;5028164;28;20363;-85